Time;durP1;ratioP1;P1;durP2;ratioP2;P2;SDS_P1;SDS_P2;PMS_P1;PMS_P2;Temp;Humidity;BMP_temperature;BMP_pressure;BME280_temperature;BME280_humidity;BME280_pressure;Samples;Min_cycle;Max_cycle;Signal;HPM_P1;HPM_P2
2021/12/20 00:07:49;;;;;;;3.90;1.80;;;;;;;1.26;100.00;99880.63;20939603;28;20223;-59
2021/12/20 00:17:52;;;;;;;3.53;1.97;;;;;;;1.21;100.00;99877.31;20992491;28;20224;-59
2021/12/20 00:27:56;;;;;;;6.50;1.80;;;;;;;1.17;100.00;99883.59;20994278;28;20227;-58
2021/12/20 00:58:16;;;;;;;3.23;1.30;;;;;;;0.76;100.00;99908.53;20904155;27;20580;-57
2021/12/20 01:08:21;;;;;;;3.77;1.43;;;;;;;0.76;100.00;99898.88;20889455;28;20330;-57
2021/12/20 01:18:24;;;;;;;2.73;1.50;;;;;;;0.85;100.00;99890.72;20905598;28;20219;-56
2021/12/20 01:28:28;;;;;;;2.53;1.33;;;;;;;0.92;100.00;99892.25;20889392;28;20324;-56
2021/12/20 01:38:31;;;;;;;2.97;1.60;;;;;;;0.99;100.00;99893.75;20900756;28;20247;-56
2021/12/20 01:48:36;;;;;;;5.63;2.73;;;;;;;0.91;100.00;99876.53;20969812;28;20719;-56
2021/12/20 02:18:32;;;;;;;4.70;2.90;;;;;;;0.68;100.00;99893.03;21059789;27;20564;-55
2021/12/20 02:58:26;;;;;;;3.70;2.47;;;;;;;0.67;100.00;99886.06;21105442;27;1374541;-58
2021/12/20 03:08:29;;;;;;;3.03;2.50;;;;;;;0.48;100.00;99879.66;21140007;28;20271;-55
2021/12/20 03:18:32;;;;;;;3.63;2.80;;;;;;;0.46;100.00;99863.09;21140798;28;20237;-56
2021/12/20 03:38:32;;;;;;;3.73;2.43;;;;;;;0.54;100.00;99858.47;21222538;27;20621;-58
2021/12/20 03:48:37;;;;;;;4.67;1.97;;;;;;;0.56;100.00;99882.91;21225656;27;20225;-58
2021/12/20 03:58:40;;;;;;;2.80;1.80;;;;;;;0.61;100.00;99865.22;21207121;27;20252;-58
2021/12/20 04:08:46;;;;;;;2.57;1.77;;;;;;;0.63;100.00;99871.28;21206268;27;20462;-58
2021/12/20 04:18:49;;;;;;;2.60;1.60;;;;;;;0.74;100.00;99871.81;21205815;27;20228;-57
2021/12/20 04:28:52;;;;;;;4.67;1.60;;;;;;;0.87;100.00;99867.88;21204505;27;20234;-59
2021/12/20 04:38:56;;;;;;;2.03;1.30;;;;;;;0.99;100.00;99857.00;21222161;27;20221;-59
2021/12/20 04:49:00;;;;;;;2.93;1.90;;;;;;;1.00;100.00;99868.34;21169809;27;20238;-58
2021/12/20 04:59:04;;;;;;;3.03;2.17;;;;;;;0.93;100.00;99898.38;21163007;27;20224;-59
2021/12/20 05:09:08;;;;;;;1.73;1.63;;;;;;;0.97;100.00;99892.94;21131583;27;20309;-58
2021/12/20 05:19:11;;;;;;;3.67;2.23;;;;;;;0.92;100.00;99929.03;21159122;27;20710;-58
2021/12/20 05:29:14;;;;;;;3.90;2.43;;;;;;;0.92;100.00;99912.41;21160882;27;20225;-57
2021/12/20 05:39:17;;;;;;;4.20;2.83;;;;;;;0.86;100.00;99939.72;21155495;27;20255;-58
2021/12/20 05:49:21;;;;;;;5.03;3.10;;;;;;;0.88;100.00;99943.16;21159798;27;20230;-58
2021/12/20 05:59:24;;;;;;;3.63;2.63;;;;;;;0.87;100.00;99941.44;21093380;27;20230;-58
2021/12/20 06:09:28;;;;;;;6.67;3.97;;;;;;;0.90;100.00;99966.75;21097325;27;20594;-57
2021/12/20 06:19:32;;;;;;;2.97;2.63;;;;;;;0.99;100.00;99990.09;21148195;27;20218;-57
2021/12/20 06:29:36;;;;;;;3.60;2.87;;;;;;;1.13;100.00;100013.34;21122443;27;20214;-58
2021/12/20 06:39:42;;;;;;;2.40;2.20;;;;;;;1.17;100.00;100036.00;21136453;27;20695;-57
2021/12/20 06:49:46;;;;;;;2.40;2.20;;;;;;;1.22;100.00;100029.66;21094189;27;20232;-57
2021/12/20 06:59:50;;;;;;;2.20;2.10;;;;;;;1.29;100.00;100038.25;21086696;27;20261;-56
2021/12/20 07:09:54;;;;;;;3.27;2.33;;;;;;;1.30;100.00;100039.97;21137740;27;20273;-57
2021/12/20 07:19:58;;;;;;;1.80;1.70;;;;;;;1.33;100.00;100051.22;21130754;27;20226;-58
2021/12/20 07:30:03;;;;;;;2.00;1.70;;;;;;;1.37;100.00;100067.78;21134160;27;20291;-57
2021/12/20 07:40:08;;;;;;;2.53;1.87;;;;;;;1.42;100.00;100073.75;21152026;27;20222;-58
2021/12/20 07:50:11;;;;;;;2.30;2.10;;;;;;;1.49;100.00;100072.66;21133462;28;20261;-59
2021/12/20 08:00:15;;;;;;;2.70;2.50;;;;;;;1.49;100.00;100077.03;21151335;28;20708;-61
2021/12/20 08:10:24;;;;;;;7.40;2.60;;;;;;;1.46;100.00;100104.28;21133086;28;20250;-59
2021/12/20 08:20:28;;;;;;;6.73;3.07;;;;;;;0.85;100.00;100095.56;21140797;28;20230;-58
2021/12/20 08:30:32;;;;;;;4.27;3.87;;;;;;;0.84;100.00;100095.66;21165737;28;20307;-59
2021/12/20 08:40:45;;;;;;;3.47;3.13;;;;;;;0.89;100.00;100112.97;21165182;28;20221;-59
2021/12/20 08:50:54;;;;;;;3.80;2.50;;;;;;;0.92;100.00;100105.03;21164522;28;20278;-58
2021/12/20 09:00:58;;;;;;;3.93;2.70;;;;;;;1.05;100.00;100121.31;21162453;28;20222;-58
2021/12/20 09:11:06;;;;;;;2.87;2.57;;;;;;;1.11;100.00;100125.50;21078157;28;20227;-58
2021/12/20 09:21:14;;;;;;;2.93;2.40;;;;;;;1.11;100.00;100139.50;21154641;28;20230;-58
2021/12/20 09:31:19;;;;;;;2.53;2.33;;;;;;;1.21;100.00;100176.91;21160690;28;20238;-58
2021/12/20 09:41:59;;;;;;;2.13;1.10;;;;;;;0.47;100.00;100177.16;21160308;28;20221;-63
2021/12/20 09:51:55;;;;;;;1.80;1.17;;;;;;;-0.07;100.00;100190.72;21159379;28;20287;-58
2021/12/20 10:01:58;;;;;;;2.30;1.20;;;;;;;-0.13;100.00;100209.22;21158616;28;20307;-59
2021/12/20 10:12:24;;;;;;;2.13;1.90;;;;;;;-0.15;100.00;100221.50;21155677;28;20698;-60
2021/12/20 10:32:42;;;;;;;2.73;1.90;;;;;;;-0.15;100.00;100213.63;20813802;27;11189876;-59
2021/12/20 10:42:46;;;;;;;3.53;2.00;;;;;;;-0.13;100.00;100217.97;21224905;27;20221;-61
2021/12/20 10:52:52;;;;;;;2.07;1.57;;;;;;;-0.12;100.00;100234.56;21225960;27;20233;-59
2021/12/20 11:03:20;;;;;;;4.70;2.50;;;;;;;-0.12;100.00;100247.66;21223740;27;20256;-59
2021/12/20 11:13:25;;;;;;;5.13;2.23;;;;;;;-0.15;100.00;100255.59;21146138;27;20222;-58
2021/12/20 11:23:28;;;;;;;2.47;1.67;;;;;;;-0.18;100.00;100258.28;21134773;28;20218;-57
2021/12/20 11:33:31;;;;;;;3.53;1.90;;;;;;;-0.19;100.00;100273.16;21137391;28;20328;-58
2021/12/20 11:43:35;;;;;;;4.13;2.60;;;;;;;-0.27;100.00;100276.84;21079475;28;20234;-59
2021/12/20 11:53:41;;;;;;;3.30;2.10;;;;;;;-0.26;100.00;100295.16;21077400;28;20558;-59
2021/12/20 12:04:10;;;;;;;2.33;1.90;;;;;;;-0.50;100.00;100311.38;21078955;28;20719;-59
2021/12/20 12:14:34;;;;;;;4.60;2.23;;;;;;;-0.72;100.00;100331.84;21074680;28;20230;-58
2021/12/20 12:34:45;;;;;;;3.27;2.07;;;;;;;-1.03;100.00;100368.22;20943936;27;20985;-59
2021/12/20 12:44:52;;;;;;;1.87;1.50;;;;;;;-1.16;100.00;100375.41;20889438;28;20238;-59
2021/12/20 13:04:57;;;;;;;1.70;1.27;;;;;;;-1.15;100.00;100398.06;21149143;27;20382;-59
2021/12/20 13:15:18;;;;;;;1.73;1.53;;;;;;;-1.16;100.00;100413.81;21135368;28;20219;-58
2021/12/20 13:45:14;;;;;;;1.70;1.60;;;;;;;-1.06;100.00;100461.66;21048492;27;20572;-56
2021/12/20 14:05:19;;;;;;;4.33;2.90;;;;;;;-1.57;100.00;100498.16;21164259;27;20389;-57
2021/12/20 14:15:26;;;;;;;2.13;1.90;;;;;;;-1.67;100.00;100525.28;21148952;27;20221;-55
2021/12/20 14:25:34;;;;;;;2.83;2.30;;;;;;;-1.60;100.00;100542.66;21148637;27;20256;-59
2021/12/20 14:35:38;;;;;;;1.63;1.50;;;;;;;-1.82;100.00;100553.34;21138675;28;20328;-58
2021/12/20 14:55:38;;;;;;;1.97;1.60;;;;;;;-2.40;100.00;100589.56;20981326;27;20573;-58
2021/12/20 15:15:38;;;;;;;5.93;3.20;;;;;;;-2.96;100.00;100592.53;21063037;27;20571;-58
2021/12/20 15:45:34;;;;;;;3.80;2.63;;;;;;;-3.42;100.00;100624.06;21159074;27;20398;-57
2021/12/20 15:55:39;;;;;;;3.60;1.67;;;;;;;-3.52;100.00;100632.78;21141402;28;20907;-56
2021/12/20 16:05:43;;;;;;;3.57;2.87;;;;;;;-3.66;100.00;100629.31;21140558;28;20574;-56
2021/12/20 16:15:46;;;;;;;2.47;1.83;;;;;;;-3.78;100.00;100650.19;21131260;28;20713;-58
2021/12/20 16:25:50;;;;;;;6.00;2.83;;;;;;;-3.89;100.00;100658.03;21137392;28;20245;-59
2021/12/20 16:35:53;;;;;;;2.23;1.87;;;;;;;-4.00;100.00;100668.47;21136281;28;20237;-59
2021/12/20 16:55:54;;;;;;;4.50;2.27;;;;;;;-4.13;100.00;100684.97;21091148;27;21116;-58
2021/12/20 17:06:10;;;;;;;4.23;2.30;;;;;;;-4.30;100.00;100681.44;21041931;27;20222;-57
2021/12/20 17:16:14;;;;;;;3.90;2.70;;;;;;;-4.16;100.00;100721.41;21031420;27;20236;-58
2021/12/20 17:56:09;;;;;;;4.73;2.77;;;;;;;-4.40;100.00;100758.72;21039205;27;20651;-58
2021/12/20 18:06:13;;;;;;;4.47;2.77;;;;;;;-4.50;100.00;100750.84;21010256;28;20229;-58
2021/12/20 18:26:26;;;;;;;5.00;3.70;;;;;;;-4.48;100.00;100785.59;20949800;27;20658;-59
2021/12/20 18:36:30;;;;;;;5.93;3.10;;;;;;;-4.51;100.00;100798.59;20941059;28;20226;-58
2021/12/20 18:56:29;;;;;;;11.77;6.57;;;;;;;-4.75;100.00;100814.97;21026211;27;20599;-58
2021/12/20 19:06:33;;;;;;;32.30;10.90;;;;;;;-4.88;100.00;100819.22;21034004;28;20273;-57
2021/12/20 19:16:42;;;;;;;14.80;6.93;;;;;;;-5.02;100.00;100823.47;21028926;28;20225;-58
2021/12/20 19:36:42;;;;;;;16.37;7.60;;;;;;;-5.25;100.00;100840.63;21122384;27;20870;-58
2021/12/20 19:46:47;;;;;;;33.90;13.23;;;;;;;-5.29;100.00;100850.13;21088488;28;20233;-58
2021/12/20 20:26:38;;;;;;;5.50;3.30;;;;;;;-5.32;100.00;100844.06;21045691;27;20573;-57
2021/12/20 21:16:31;;;;;;;3.30;3.00;;;;;;;-5.14;100.00;100873.69;20973147;27;20314;-57
2021/12/20 21:36:31;;;;;;;8.80;5.20;;;;;;;-4.89;100.00;100873.88;21070836;27;20564;-54
2021/12/20 21:46:35;;;;;;;5.47;3.97;;;;;;;-4.87;100.00;100880.84;21047415;28;20222;-54
2021/12/20 22:06:36;;;;;;;9.00;4.57;;;;;;;-4.48;100.00;100889.78;21070435;27;20631;-55
2021/12/20 22:26:37;;;;;;;6.97;5.20;;;;;;;-3.85;100.00;100904.81;20912172;27;20884;-57
2021/12/20 22:56:34;;;;;;;9.57;6.00;;;;;;;-3.11;100.00;100914.53;21067063;27;20575;-56
2021/12/20 23:26:28;;;;;;;5.27;4.40;;;;;;;-2.59;100.00;100923.22;21104165;27;1402898;-56
2021/12/20 23:36:32;;;;;;;6.23;4.37;;;;;;;-2.46;100.00;100918.00;21141925;28;20268;-56
2021/12/20 23:46:35;;;;;;;6.80;4.20;;;;;;;-2.30;100.00;100919.72;21139450;28;20225;-57
